^^
Station Historical Data
 
Daily Summary for January 22, 2018 Units:  English    Metric   Both
« Previous Day
Next Day »
Daily Weekly Monthly Yearly Custom
  Current: High: Low: Average:
Temperature: 39.6 °F 41.7 °F 34.7 °F 38.3 °F
Dew Point: 37.5 °F 37.8 °F 32.9 °F 35.8 °F
Humidity: 92 % 94 % 85 % 91 %
Wind Speed: 0.0 mph 1.3 mph 0.0 mph 0 mph
Wind Gust: 0.0 mph 6.9 mph - -
Wind:Calm - - NW
Pressure: 30.17 in 30.18 in 30.13 in -
Precipitation: 0.00 in      
Historical Graphs
 
 
Tabular Data for January 22, 2018
Time Temperature Dew Point Pressure Wind Wind Speed Wind Gust Humidity Rainfall Rate (Hourly) solar Conditions
00:09 41.2 °F 37.3 °F 30.16 in WNW 0.7 mph 1.2 mph 86 % 0.00 in 0.0 W/m2 OVC
00:14 41.4 °F 37.5 °F 30.17 in NW 0.9 mph 6.9 mph 86 % 0.00 in 0.0 W/m2 OVC
00:19 41.7 °F 37.8 °F 30.16 in NW 1.3 mph 6.9 mph 86 % 0.00 in 0.0 W/m2 OVC
00:24 41.5 °F 37.3 °F 30.16 in Calm   4.6 mph 85 % 0.00 in 0.0 W/m2 OVC
00:29 41.4 °F 37.5 °F 30.15 in Calm   3.5 mph 86 % 0.00 in 0.0 W/m2 OVC
00:34 41.1 °F 37.2 °F 30.15 in Calm     86 % 0.00 in 0.0 W/m2 OVC
00:39 41.0 °F 37.1 °F 30.15 in Calm     86 % 0.00 in 0.0 W/m2 OVC
00:44 40.9 °F 37.0 °F 30.15 in Calm     86 % 0.00 in 0.0 W/m2 OVC
00:45 40.9 °F 37.0 °F 30.15 in Calm     86 % 0.00 in 0.0 W/m2 OVC
00:50 41.0 °F 37.1 °F 30.14 in Calm     86 % 0.00 in 0.0 W/m2 OVC
00:55 40.9 °F 37.0 °F 30.14 in Calm     86 % 0.00 in 0.0 W/m2 OVC
01:00 40.8 °F 36.9 °F 30.14 in Calm     86 % 0.00 in 0.0 W/m2 OVC
01:05 40.6 °F 36.7 °F 30.14 in Calm     86 % 0.00 in 0.0 W/m2 OVC
01:10 40.7 °F 37.1 °F 30.14 in Calm     87 % 0.00 in 0.0 W/m2 OVC
01:15 40.5 °F 36.6 °F 30.14 in Calm     86 % 0.00 in 0.0 W/m2 OVC
01:20 40.4 °F 36.8 °F 30.14 in Calm     87 % 0.00 in 0.0 W/m2 OVC
01:25 40.3 °F 36.7 °F 30.14 in Calm     87 % 0.00 in 0.0 W/m2 OVC
01:30 40.4 °F 36.8 °F 30.14 in Calm     87 % 0.00 in 0.0 W/m2 OVC
01:40 40.1 °F 36.5 °F 30.14 in Calm     87 % 0.00 in 0.0 W/m2 OVC
01:46 40.0 °F 36.7 °F 30.14 in Calm     88 % 0.00 in 0.0 W/m2 OVC
01:51 40.2 °F 36.9 °F 30.14 in Calm     88 % 0.00 in 0.0 W/m2 OVC
02:06 39.4 °F 36.4 °F 30.14 in Calm     89 % 0.00 in 0.0 W/m2 OVC
02:11 39.4 °F 36.4 °F 30.14 in Calm     89 % 0.00 in 0.0 W/m2 OVC
02:16 39.5 °F 36.5 °F 30.14 in Calm     89 % 0.00 in 0.0 W/m2 OVC
02:21 39.4 °F 36.4 °F 30.14 in Calm     89 % 0.00 in 0.0 W/m2 OVC
02:31 39.0 °F 36.0 °F 30.14 in Calm     89 % 0.00 in 0.0 W/m2 OVC
02:46 39.0 °F 36.3 °F 30.14 in Calm     90 % 0.00 in 0.0 W/m2 OVC
02:51 39.0 °F 36.3 °F 30.14 in Calm     90 % 0.00 in 0.0 W/m2 OVC
02:56 38.7 °F 36.0 °F 30.14 in Calm     90 % 0.00 in 0.0 W/m2 OVC
03:01 38.8 °F 36.4 °F 30.14 in Calm     91 % 0.00 in 0.0 W/m2 OVC
03:11 39.0 °F 36.6 °F 30.13 in Calm     91 % 0.00 in 0.0 W/m2 OVC
03:21 38.9 °F 36.5 °F 30.13 in Calm     91 % 0.00 in 0.0 W/m2 OVC
03:26 39.0 °F 36.6 °F 30.13 in Calm     91 % 0.00 in 0.0 W/m2 OVC
03:27 38.9 °F 36.5 °F 30.13 in Calm     91 % 0.00 in 0.0 W/m2 OVC
03:32 39.1 °F 36.7 °F 30.13 in Calm     91 % 0.00 in 0.0 W/m2 OVC
03:37 39.2 °F 36.8 °F 30.13 in Calm     91 % 0.00 in 0.0 W/m2 OVC
03:42 38.9 °F 36.5 °F 30.13 in Calm     91 % 0.00 in 0.0 W/m2 OVC
03:47 38.8 °F 36.4 °F 30.13 in Calm     91 % 0.00 in 0.0 W/m2 OVC
03:52 38.9 °F 36.5 °F 30.13 in Calm     91 % 0.00 in 0.0 W/m2 OVC
03:57 38.9 °F 36.5 °F 30.13 in Calm     91 % 0.00 in 0.0 W/m2 OVC
04:02 39.0 °F 36.6 °F 30.13 in Calm     91 % 0.00 in 0.0 W/m2 OVC
04:07 39.2 °F 36.8 °F 30.13 in Calm     91 % 0.00 in 0.0 W/m2 OVC
04:12 39.2 °F 36.8 °F 30.13 in Calm     91 % 0.00 in 0.0 W/m2 OVC
04:22 38.9 °F 36.5 °F 30.13 in Calm     91 % 0.00 in 0.0 W/m2 OVC
04:27 38.1 °F 35.4 °F 30.13 in Calm     90 % 0.00 in 0.0 W/m2 OVC
04:37 37.8 °F 35.7 °F 30.13 in Calm     92 % 0.00 in 0.0 W/m2 OVC
04:42 37.7 °F 35.3 °F 30.13 in Calm     91 % 0.00 in 0.0 W/m2 OVC
04:52 37.2 °F 34.8 °F 30.13 in Calm     91 % 0.00 in 0.0 W/m2 OVC
04:57 37.0 °F 34.9 °F 30.13 in Calm     92 % 0.00 in 0.0 W/m2 OVC
05:02 37.0 °F 34.9 °F 30.14 in Calm     92 % 0.00 in 0.0 W/m2 BKN
05:07 36.8 °F 34.7 °F 30.13 in Calm     92 % 0.00 in 0.0 W/m2 BKN
05:12 36.9 °F 34.8 °F 30.13 in Calm     92 % 0.00 in 0.0 W/m2 BKN
05:17 37.2 °F 35.1 °F 30.14 in Calm     92 % 0.00 in 0.0 W/m2 BKN
05:22 36.8 °F 34.7 °F 30.13 in Calm     92 % 0.00 in 0.0 W/m2 BKN
05:27 37.1 °F 35.0 °F 30.13 in Calm     92 % 0.00 in 0.0 W/m2 BKN
05:32 37.2 °F 35.1 °F 30.13 in Calm     92 % 0.00 in 0.0 W/m2 BKN
05:37 36.1 °F 34.0 °F 30.13 in Calm     92 % 0.00 in 0.0 W/m2 BKN
05:47 36.6 °F 34.5 °F 30.14 in Calm     92 % 0.00 in 0.0 W/m2 BKN
05:52 36.5 °F 34.4 °F 30.14 in Calm     92 % 0.00 in 0.0 W/m2 BKN
05:57 36.1 °F 34.0 °F 30.14 in Calm     92 % 0.00 in 0.0 W/m2 BKN
06:02 35.8 °F 33.7 °F 30.14 in Calm     92 % 0.00 in 0.0 W/m2 OVC
06:07 35.1 °F 33.0 °F 30.14 in Calm     92 % 0.00 in 0.0 W/m2 OVC
06:17 34.7 °F 32.9 °F 30.14 in Calm     93 % 0.00 in 0.0 W/m2 OVC
06:22 35.2 °F 33.4 °F 30.14 in Calm     93 % 0.00 in 0.0 W/m2 OVC
06:27 35.4 °F 33.6 °F 30.14 in Calm     93 % 0.00 in 0.0 W/m2 OVC
06:32 35.6 °F 33.8 °F 30.14 in Calm     93 % 0.00 in 0.0 W/m2 OVC
06:37 35.8 °F 34.0 °F 30.14 in Calm     93 % 0.00 in 0.0 W/m2 OVC
06:42 35.8 °F 34.0 °F 30.14 in Calm     93 % 0.00 in 0.0 W/m2 OVC
06:47 35.8 °F 34.0 °F 30.14 in Calm     93 % 0.00 in 0.0 W/m2 OVC
06:52 35.7 °F 33.9 °F 30.15 in Calm     93 % 0.00 in 0.0 W/m2 OVC
07:02 35.8 °F 34.0 °F 30.15 in Calm     93 % 0.00 in 0.0 W/m2 OVC
07:07 36.1 °F 34.3 °F 30.15 in Calm     93 % 0.00 in 0.0 W/m2 OVC
07:12 36.3 °F 34.5 °F 30.15 in Calm     93 % 0.00 in 0.0 W/m2 OVC
07:17 36.0 °F 34.2 °F 30.15 in Calm     93 % 0.00 in 0.0 W/m2 OVC
07:27 36.7 °F 35.1 °F 30.15 in Calm     94 % 0.00 in 0.0 W/m2 OVC
07:32 37.0 °F 35.2 °F 30.16 in Calm     93 % 0.00 in 5.0 W/m2 OVC
07:44 36.7 °F 34.9 °F 30.16 in Calm     93 % 0.00 in 14.0 W/m2 OVC
07:49 37.2 °F 35.4 °F 30.17 in Calm     93 % 0.00 in 18.0 W/m2 OVC
08:04 37.1 °F 35.3 °F 30.17 in Calm     93 % 0.00 in 26.0 W/m2 OVC
08:09 37.1 °F 35.3 °F 30.17 in Calm     93 % 0.00 in 23.0 W/m2 OVC
08:20 37.2 °F 35.4 °F 30.17 in Calm     93 % 0.00 in 25.0 W/m2 OVC
08:25 37.3 °F 35.5 °F 30.17 in Calm     93 % 0.00 in 28.0 W/m2 OVC
08:30 37.3 °F 35.5 °F 30.17 in Calm     93 % 0.00 in 28.0 W/m2 OVC
08:35 37.5 °F 35.7 °F 30.17 in Calm     93 % 0.00 in 42.0 W/m2 OVC
08:45 37.8 °F 36.0 °F 30.18 in Calm     93 % 0.00 in 54.0 W/m2 OVC
08:50 37.9 °F 36.1 °F 30.17 in Calm     93 % 0.00 in 63.0 W/m2 OVC
08:55 38.0 °F 36.2 °F 30.17 in Calm     93 % 0.00 in 67.0 W/m2 OVC
09:00 38.1 °F 36.3 °F 30.18 in Calm     93 % 0.00 in 65.0 W/m2 OVC
09:05 38.3 °F 36.5 °F 30.18 in Calm     93 % 0.00 in 69.0 W/m2 OVC
09:10 38.5 °F 36.7 °F 30.18 in Calm     93 % 0.00 in 77.0 W/m2 OVC
09:15 38.7 °F 36.9 °F 30.18 in Calm     93 % 0.00 in 88.0 W/m2 OVC
09:25 39.2 °F 37.4 °F 30.17 in Calm   1.0 mph 93 % 0.00 in 88.0 W/m2 OVC
09:30 39.5 °F 37.4 °F 30.17 in Calm     92 % 0.00 in 98.0 W/m2 OVC
09:35 39.6 °F 37.5 °F 30.17 in Calm     92 % 0.00 in 100.0 W/m2 OVC
Air Products Campus Weather
Compliments of Weather Underground - 2.25 mb